createdAt,value
2022-08-14T00:00:21.686Z,7.35
2022-08-14T00:02:51.826Z,9.25
2022-08-14T00:05:23.133Z,10.48
2022-08-14T00:07:52.006Z,9.10
2022-08-14T00:10:51.976Z,8.15
2022-08-14T00:13:15.410Z,8.00
2022-08-14T00:15:48.306Z,9.25
2022-08-14T00:18:30.915Z,10.20
2022-08-14T00:21:11.241Z,9.75
2022-08-14T00:23:41.238Z,9.10
2022-08-14T00:26:21.499Z,9.07
2022-08-14T00:28:51.242Z,9.05
2022-08-14T00:31:19.852Z,9.02
2022-08-14T00:34:37.663Z,9.85
2022-08-14T00:36:52.379Z,9.07
2022-08-14T00:39:22.245Z,8.63
2022-08-14T00:41:51.976Z,9.15
2022-08-14T00:44:21.481Z,8.75
2022-08-14T00:47:01.051Z,8.27
2022-08-14T00:49:36.387Z,9.88
2022-08-14T00:52:11.105Z,10.38
2022-08-14T00:54:43.452Z,10.95
2022-08-14T00:57:15.603Z,9.63
2022-08-14T00:59:45.763Z,9.32
2022-08-14T01:02:20.048Z,8.73
2022-08-14T01:04:54.282Z,8.65
2022-08-14T01:07:27.208Z,8.25
2022-08-14T01:10:02.290Z,8.63
2022-08-14T01:12:33.886Z,8.48
2022-08-14T01:15:14.672Z,8.38
2022-08-14T01:18:11.978Z,9.02
2022-08-14T01:20:58.383Z,9.90
2022-08-14T01:23:41.947Z,10.32
2022-08-14T01:26:34.333Z,12.15
2022-08-14T01:29:10.991Z,14.07
2022-08-14T01:31:54.744Z,13.57
2022-08-14T01:35:19.760Z,12.48
2022-08-14T01:37:16.529Z,13.02
2022-08-14T01:39:48.850Z,11.57
2022-08-14T01:42:31.284Z,11.00
2022-08-14T01:45:00.451Z,10.55
2022-08-14T01:47:33.544Z,9.60
2022-08-14T01:50:07.786Z,8.88
2022-08-14T01:52:59.724Z,9.25
2022-08-14T01:55:32.564Z,9.35
2022-08-14T01:58:19.426Z,8.90
2022-08-14T02:00:55.004Z,8.90
2022-08-14T02:03:29.862Z,8.85
2022-08-14T02:06:03.832Z,7.82
2022-08-14T02:08:52.863Z,8.60
2022-08-14T02:11:26.238Z,8.25
2022-08-14T02:13:59.829Z,9.07
2022-08-14T02:16:39.453Z,8.55
2022-08-14T02:19:10.549Z,8.73
2022-08-14T02:21:43.691Z,8.57
2022-08-14T02:24:39.329Z,8.77
2022-08-14T02:28:24.231Z,8.77
2022-08-14T02:30:02.169Z,9.40
2022-08-14T02:32:36.270Z,9.30
2022-08-14T02:35:19.206Z,9.48
2022-08-14T02:37:50.896Z,9.15
2022-08-14T02:40:20.132Z,9.05
2022-08-14T02:42:54.907Z,8.73
2022-08-14T02:45:38.912Z,9.20
2022-08-14T02:49:04.566Z,9.15
2022-08-14T02:51:05.289Z,9.50
2022-08-14T02:53:34.453Z,9.10
2022-08-14T02:57:14.366Z,9.55
2022-08-14T02:59:05.554Z,9.32
2022-08-14T03:01:43.518Z,9.07
2022-08-14T03:04:20.400Z,9.52
2022-08-14T03:07:06.094Z,9.25
2022-08-14T03:10:25.253Z,10.15
2022-08-14T03:12:31.645Z,9.68
2022-08-14T03:15:14.217Z,9.88
2022-08-14T03:17:57.432Z,9.30
2022-08-14T03:20:29.424Z,9.93
2022-08-14T03:23:02.777Z,9.17
2022-08-14T03:25:33.571Z,9.35
2022-08-14T03:28:14.731Z,9.60
2022-08-14T03:31:03.099Z,9.25
2022-08-14T03:33:37.686Z,9.77
2022-08-14T03:37:52.043Z,9.18
2022-08-14T03:39:13.666Z,10.07
2022-08-14T03:41:47.825Z,10.40
2022-08-14T03:45:26.762Z,10.00
2022-08-14T03:47:08.007Z,9.50
2022-08-14T03:49:42.224Z,9.07
2022-08-14T03:52:37.628Z,9.65
2022-08-14T03:55:01.626Z,10.57
2022-08-14T03:57:32.995Z,10.10
2022-08-14T04:00:13.788Z,9.32
2022-08-14T04:03:00.524Z,10.10
2022-08-14T04:05:28.757Z,9.68
2022-08-14T04:08:22.677Z,9.13
2022-08-14T04:10:56.733Z,10.05
2022-08-14T04:13:27.947Z,9.77
2022-08-14T04:16:02.327Z,9.98
2022-08-14T04:18:35.590Z,10.23
2022-08-14T04:21:04.539Z,10.20
2022-08-14T04:23:38.741Z,9.88
2022-08-14T04:26:14.612Z,10.38
2022-08-14T04:29:01.879Z,10.50
2022-08-14T04:32:57.599Z,10.52
2022-08-14T04:34:27.283Z,10.32
2022-08-14T04:37:22.078Z,10.43
2022-08-14T04:40:10.871Z,9.77
2022-08-14T04:42:56.839Z,10.07
2022-08-14T04:45:29.648Z,10.07
2022-08-14T04:48:36.626Z,10.00
2022-08-14T04:51:09.910Z,10.48
2022-08-14T04:53:43.309Z,9.93
2022-08-14T04:56:30.863Z,10.40
2022-08-14T04:59:09.711Z,10.25
2022-08-14T05:01:40.435Z,10.57
2022-08-14T05:04:14.583Z,10.23
2022-08-14T05:06:46.168Z,10.82
2022-08-14T05:09:18.206Z,10.50
2022-08-14T05:11:51.460Z,10.10
2022-08-14T05:14:46.399Z,9.93
2022-08-14T05:17:11.382Z,10.55
2022-08-14T05:19:44.925Z,10.93
2022-08-14T05:22:30.311Z,10.20
2022-08-14T05:24:58.718Z,10.57
2022-08-14T05:27:30.992Z,10.32
2022-08-14T05:30:00.516Z,10.48
2022-08-14T05:32:28.781Z,11.80
2022-08-14T05:34:59.507Z,11.10
2022-08-14T05:37:31.075Z,10.75
2022-08-14T05:40:01.166Z,11.05
2022-08-14T05:42:31.939Z,10.43
2022-08-14T05:45:00.975Z,11.57
2022-08-14T05:47:33.911Z,10.43
2022-08-14T05:50:18.597Z,11.70
2022-08-14T05:52:51.009Z,11.15
2022-08-14T05:55:22.854Z,11.93
2022-08-14T05:57:53.802Z,11.55
2022-08-14T06:00:29.910Z,10.95
2022-08-14T06:03:04.148Z,11.02
2022-08-14T06:05:38.597Z,11.23
2022-08-14T06:08:31.383Z,10.77
2022-08-14T06:11:08.279Z,11.05
2022-08-14T06:13:45.102Z,11.63
2022-08-14T06:16:17.474Z,10.90
2022-08-14T06:18:52.620Z,11.38
2022-08-14T06:21:22.735Z,11.68
2022-08-14T06:23:52.762Z,10.68
2022-08-14T06:26:22.414Z,11.02
2022-08-14T06:28:52.789Z,10.43
2022-08-14T06:31:21.476Z,10.50
2022-08-14T06:35:03.188Z,9.40
2022-08-14T06:36:41.460Z,10.43
2022-08-14T06:39:12.847Z,9.93
2022-08-14T06:41:59.492Z,10.07
2022-08-14T06:44:30.616Z,10.15
2022-08-14T06:47:02.912Z,9.57
2022-08-14T06:49:43.402Z,9.60
2022-08-14T06:52:16.589Z,9.27
2022-08-14T06:54:46.945Z,9.32
2022-08-14T06:57:15.117Z,9.00
2022-08-14T06:59:46.474Z,9.25
2022-08-14T07:02:33.397Z,9.20
2022-08-14T07:05:24.204Z,8.75
2022-08-14T07:07:52.845Z,8.88
2022-08-14T07:10:25.047Z,9.10
2022-08-14T07:13:03.730Z,8.82
2022-08-14T07:15:39.675Z,9.02
2022-08-14T07:18:12.263Z,8.80
2022-08-14T07:20:42.241Z,8.50
2022-08-14T07:23:19.802Z,8.52
2022-08-14T07:25:55.391Z,8.57
2022-08-14T07:28:26.845Z,8.88
2022-08-14T07:31:05.183Z,8.95
2022-08-14T07:33:36.222Z,8.95
2022-08-14T07:36:26.314Z,8.55
2022-08-14T07:38:56.210Z,9.00
2022-08-14T07:41:31.302Z,8.00
2022-08-14T07:44:29.307Z,8.00
2022-08-14T07:46:51.911Z,8.57
2022-08-14T07:49:20.402Z,8.60
2022-08-14T07:51:50.647Z,8.30
2022-08-14T07:54:23.181Z,7.85
2022-08-14T07:57:00.738Z,8.02
2022-08-14T07:59:41.903Z,7.47
2022-08-14T08:02:19.388Z,8.10
2022-08-14T08:04:54.608Z,7.65
2022-08-14T08:07:24.437Z,7.82
2022-08-14T08:10:02.257Z,8.02
2022-08-14T08:12:33.143Z,7.63
2022-08-14T08:15:07.216Z,7.50
2022-08-14T08:17:53.461Z,8.13
2022-08-14T08:20:29.408Z,7.70
2022-08-14T08:23:00.412Z,7.15
2022-08-14T08:25:31.201Z,9.63
2022-08-14T08:28:08.145Z,11.43
2022-08-14T08:30:49.502Z,7.70
2022-08-14T08:33:20.274Z,7.70
2022-08-14T08:35:50.444Z,7.43
2022-08-14T08:39:18.309Z,6.80
2022-08-14T08:41:16.454Z,6.63
2022-08-14T08:43:47.654Z,7.55
2022-08-14T08:46:24.062Z,7.18
2022-08-14T08:51:30.866Z,7.22
2022-08-14T08:54:06.073Z,6.80
2022-08-14T08:56:40.653Z,7.43
2022-08-14T08:59:30.800Z,6.95
2022-08-14T09:02:04.845Z,6.53
2022-08-14T09:04:37.554Z,7.25
2022-08-14T09:07:16.600Z,5.88
2022-08-14T09:09:59.328Z,5.85
2022-08-14T09:12:32.480Z,4.97
2022-08-14T09:15:09.047Z,5.13
2022-08-14T09:17:42.267Z,4.95
2022-08-14T09:20:12.797Z,3.97
2022-08-14T09:22:48.336Z,4.15
2022-08-14T09:25:19.472Z,4.32
2022-08-14T09:27:48.976Z,4.60
2022-08-14T09:30:32.513Z,4.15
2022-08-14T09:33:23.722Z,4.40
2022-08-14T09:36:08.275Z,4.72
2022-08-14T09:38:48.198Z,4.30
2022-08-14T09:42:21.323Z,4.63
2022-08-14T09:44:45.874Z,4.25
2022-08-14T09:47:19.833Z,4.72
2022-08-14T09:49:53.177Z,4.97
2022-08-14T09:52:33.720Z,4.88
2022-08-14T09:55:03.525Z,4.80
2022-08-14T09:57:33.414Z,4.93
2022-08-14T10:00:30.317Z,4.72
2022-08-14T10:03:08.423Z,4.97
2022-08-14T10:05:41.192Z,5.10
2022-08-14T10:08:25.384Z,5.00
2022-08-14T10:11:02.475Z,4.97
2022-08-14T10:13:42.976Z,3.65
2022-08-14T10:16:32.077Z,4.68
2022-08-14T10:19:23.244Z,4.00
2022-08-14T10:23:13.281Z,4.07
2022-08-14T10:24:52.288Z,3.95
2022-08-14T10:27:23.648Z,4.38
2022-08-14T10:29:54.639Z,4.30
2022-08-14T10:32:28.676Z,4.30
2022-08-14T10:35:13.545Z,4.93
2022-08-14T10:37:46.671Z,5.22
2022-08-14T10:40:43.544Z,4.60
2022-08-14T10:43:18.557Z,4.60
2022-08-14T10:45:59.650Z,4.13
2022-08-14T10:48:37.138Z,4.80
2022-08-14T10:51:10.716Z,5.05
2022-08-14T10:53:40.054Z,4.47
2022-08-14T10:56:21.348Z,5.38
2022-08-14T10:59:04.837Z,5.10
2022-08-14T11:01:38.452Z,4.90
2022-08-14T11:04:30.320Z,5.07
2022-08-14T11:07:00.660Z,4.53
2022-08-14T11:09:31.480Z,4.45
2022-08-14T11:12:34.926Z,4.53
2022-08-14T11:14:58.855Z,4.18
2022-08-14T11:17:31.789Z,4.20
2022-08-14T11:20:02.903Z,4.03
2022-08-14T11:23:03.354Z,4.07
2022-08-14T11:25:24.808Z,4.20
2022-08-14T11:28:10.863Z,4.20
2022-08-14T11:30:51.188Z,4.00
2022-08-14T11:33:24.793Z,4.18
2022-08-14T11:35:53.711Z,3.97
2022-08-14T11:38:30.963Z,4.20
2022-08-14T11:41:00.248Z,4.95
2022-08-14T11:43:30.537Z,4.38
2022-08-14T11:45:59.552Z,4.65
2022-08-14T11:49:03.016Z,4.35
2022-08-14T11:51:30.722Z,4.35
2022-08-14T11:54:08.267Z,5.38
2022-08-14T11:56:37.966Z,4.75
2022-08-14T11:59:10.245Z,4.28
2022-08-14T12:01:41.387Z,4.57
2022-08-14T12:04:31.650Z,4.60
2022-08-14T12:07:03.757Z,4.03
2022-08-14T12:09:36.242Z,4.05
2022-08-14T12:12:35.006Z,4.03
2022-08-14T12:15:07.211Z,4.45
2022-08-14T12:17:49.703Z,4.50
2022-08-14T12:20:32.398Z,4.45
2022-08-14T12:23:05.353Z,4.18
2022-08-14T12:25:36.535Z,4.03
2022-08-14T12:28:27.258Z,4.00
2022-08-14T12:31:02.585Z,3.80
2022-08-14T12:33:34.141Z,4.40
2022-08-14T12:36:06.185Z,3.92
2022-08-14T12:38:43.811Z,4.47
2022-08-14T12:41:21.460Z,4.25
2022-08-14T12:43:51.967Z,4.28
2022-08-14T12:46:27.355Z,4.03
2022-08-14T12:48:59.221Z,4.05
2022-08-14T12:51:31.086Z,3.83
2022-08-14T12:54:01.280Z,4.28
2022-08-14T12:56:33.717Z,3.80
2022-08-14T12:59:04.714Z,3.88
2022-08-14T13:02:00.361Z,3.70
2022-08-14T13:04:24.755Z,3.97
2022-08-14T13:06:54.371Z,3.95
2022-08-14T13:09:36.444Z,4.28
2022-08-14T13:12:32.451Z,3.83
2022-08-14T13:15:00.978Z,3.83
2022-08-14T13:17:38.066Z,3.97
2022-08-14T13:20:10.510Z,3.88
2022-08-14T13:22:56.089Z,3.60
2022-08-14T13:25:27.675Z,3.75
2022-08-14T13:28:00.253Z,3.28
2022-08-14T13:30:29.246Z,3.47
2022-08-14T13:33:00.444Z,3.47
2022-08-14T13:35:29.914Z,3.30
2022-08-14T13:37:58.610Z,3.30
2022-08-14T13:40:27.872Z,3.42
2022-08-14T13:42:59.533Z,3.25
2022-08-14T13:45:59.357Z,2.97
2022-08-14T13:48:28.517Z,3.42
2022-08-14T13:51:10.787Z,3.15
2022-08-14T13:54:06.939Z,3.30
2022-08-14T13:56:40.299Z,3.33
2022-08-14T13:59:11.965Z,3.40
2022-08-14T14:01:51.586Z,3.38
2022-08-14T14:04:24.880Z,3.40
2022-08-14T14:06:55.762Z,3.63
2022-08-14T14:09:37.675Z,3.53
2022-08-14T14:12:37.610Z,3.65
2022-08-14T14:15:17.723Z,3.83
2022-08-14T14:17:48.012Z,3.38
2022-08-14T14:20:35.949Z,3.60
2022-08-14T14:23:11.667Z,3.17
2022-08-14T14:25:48.494Z,3.58
2022-08-14T14:28:24.374Z,3.33
2022-08-14T14:31:01.185Z,3.40
2022-08-14T14:33:51.654Z,3.25
2022-08-14T14:36:26.649Z,3.40
2022-08-14T14:38:57.835Z,3.17
2022-08-14T14:41:37.609Z,3.10
2022-08-14T14:44:09.759Z,2.88
2022-08-14T14:46:53.054Z,3.08
2022-08-14T14:49:31.704Z,3.25
2022-08-14T14:52:20.768Z,3.33
2022-08-14T14:54:52.895Z,3.13
2022-08-14T14:57:21.656Z,3.70
2022-08-14T14:59:50.638Z,3.15
2022-08-14T15:02:34.853Z,3.20
2022-08-14T15:05:08.608Z,3.00
2022-08-14T15:07:38.056Z,3.13
2022-08-14T15:10:27.658Z,3.15
2022-08-14T15:13:00.208Z,2.70
2022-08-14T15:15:32.788Z,2.60
2022-08-14T15:18:03.000Z,2.60
2022-08-14T15:20:35.398Z,2.90
2022-08-14T15:23:12.555Z,3.10
2022-08-14T15:25:52.311Z,3.15
2022-08-14T15:28:23.171Z,2.83
2022-08-14T15:30:58.955Z,3.30
2022-08-14T15:34:33.562Z,3.10
2022-08-14T15:36:36.448Z,3.30
2022-08-14T15:39:06.418Z,2.60
2022-08-14T15:41:41.478Z,3.10
2022-08-14T15:44:19.115Z,2.80
2022-08-14T15:46:54.092Z,2.95
2022-08-14T15:49:34.561Z,3.00
2022-08-14T15:52:05.050Z,3.05
2022-08-14T15:54:37.096Z,2.90
2022-08-14T15:57:09.505Z,2.85
2022-08-14T15:59:56.518Z,3.20
2022-08-14T16:02:28.121Z,2.97
2022-08-14T16:04:58.567Z,3.22
2022-08-14T16:07:27.593Z,3.00
2022-08-14T16:12:47.373Z,3.00
2022-08-14T16:15:17.275Z,2.75
2022-08-14T16:17:50.800Z,2.97
2022-08-14T16:20:41.370Z,2.95
2022-08-14T16:23:12.574Z,2.97
2022-08-14T16:25:45.790Z,2.90
2022-08-14T16:28:27.161Z,3.10
2022-08-14T16:30:58.838Z,3.15
2022-08-14T16:33:27.825Z,3.05
2022-08-14T16:36:31.431Z,3.10
2022-08-14T16:39:03.805Z,3.50
2022-08-14T16:41:32.737Z,3.00
2022-08-14T16:44:06.205Z,3.10
2022-08-14T16:46:52.857Z,3.08
2022-08-14T16:49:35.342Z,3.17
2022-08-14T16:52:25.513Z,3.22
2022-08-14T16:55:11.215Z,3.05
2022-08-14T16:57:49.947Z,3.00
2022-08-14T17:00:32.721Z,2.90
2022-08-14T17:03:05.122Z,2.90
2022-08-14T17:05:40.950Z,3.38
2022-08-14T17:08:32.583Z,3.13
2022-08-14T17:11:10.040Z,3.20
2022-08-14T17:13:58.409Z,3.35
2022-08-14T17:16:37.847Z,3.20
2022-08-14T17:19:13.523Z,2.97
2022-08-14T17:21:46.943Z,3.13
2022-08-14T17:24:57.803Z,3.20
2022-08-14T17:27:08.458Z,3.25
2022-08-14T17:32:44.509Z,3.13
2022-08-14T17:35:57.675Z,3.28
2022-08-14T17:38:39.581Z,3.20
2022-08-14T17:41:32.841Z,3.35
2022-08-14T17:44:34.144Z,3.55
2022-08-14T17:47:14.771Z,3.30
2022-08-14T17:49:52.013Z,3.40
2022-08-14T17:52:34.698Z,3.05
2022-08-14T17:55:08.019Z,3.30
2022-08-14T17:57:41.364Z,3.50
2022-08-14T18:00:14.822Z,3.13
2022-08-14T18:02:51.264Z,3.10
2022-08-14T18:06:07.003Z,3.17
2022-08-14T18:08:32.441Z,3.42
2022-08-14T18:11:02.460Z,3.90
2022-08-14T18:13:49.857Z,4.50
2022-08-14T18:16:22.037Z,4.07
2022-08-14T18:18:52.435Z,3.53
2022-08-14T18:21:23.984Z,3.40
2022-08-14T18:24:20.037Z,3.67
2022-08-14T18:27:02.935Z,3.53
2022-08-14T18:29:55.594Z,3.70
2022-08-14T18:32:47.100Z,4.20
2022-08-14T18:35:19.772Z,3.88
2022-08-14T18:37:55.949Z,3.63
2022-08-14T18:40:34.964Z,3.67
2022-08-14T18:43:07.374Z,3.60
2022-08-14T18:45:41.178Z,3.78
2022-08-14T18:48:33.346Z,3.40
2022-08-14T18:51:46.227Z,3.47
2022-08-14T18:54:33.211Z,3.72
2022-08-14T18:57:09.025Z,4.28
2022-08-14T18:59:43.277Z,3.50
2022-08-14T19:02:46.403Z,3.70
2022-08-14T19:05:58.390Z,3.70
2022-08-14T19:08:38.933Z,4.00
2022-08-14T19:11:31.752Z,4.85
2022-08-14T19:14:04.687Z,3.83
2022-08-14T19:16:37.258Z,4.00
2022-08-14T19:19:17.162Z,3.97
2022-08-14T19:21:56.511Z,4.18
2022-08-14T19:24:44.072Z,4.30
2022-08-14T19:27:37.596Z,4.45
2022-08-14T19:30:23.745Z,4.13
2022-08-14T19:32:57.833Z,4.30
2022-08-14T19:35:59.928Z,4.63
2022-08-14T19:38:52.262Z,4.55
2022-08-14T19:41:29.163Z,4.65
2022-08-14T19:44:10.477Z,3.90
2022-08-14T19:47:01.207Z,4.40
2022-08-14T19:50:24.780Z,4.60
2022-08-14T19:52:23.701Z,4.30
2022-08-14T19:54:53.252Z,4.07
2022-08-14T19:57:25.639Z,4.78
2022-08-14T20:00:04.572Z,3.90
2022-08-14T20:02:37.508Z,6.25
2022-08-14T20:05:12.353Z,4.78
2022-08-14T20:09:06.467Z,5.45
2022-08-14T20:11:07.096Z,4.72
2022-08-14T20:13:29.387Z,4.30
2022-08-14T20:16:12.516Z,4.40
2022-08-14T20:18:50.622Z,4.30
2022-08-14T20:21:21.798Z,5.10
2022-08-14T20:24:12.836Z,5.32
2022-08-14T20:27:34.035Z,6.40
2022-08-14T20:30:34.009Z,4.40
2022-08-14T20:33:11.327Z,4.50
2022-08-14T20:35:44.249Z,5.30
2022-08-14T20:38:29.181Z,4.88
2022-08-14T20:41:05.809Z,4.88
2022-08-14T20:43:54.799Z,5.05
2022-08-14T20:46:29.583Z,6.38
2022-08-14T20:49:00.869Z,5.15
2022-08-14T20:51:37.427Z,5.10
2022-08-14T20:54:07.776Z,6.03
2022-08-14T20:56:41.800Z,5.22
2022-08-14T20:59:19.195Z,5.30
2022-08-14T21:01:55.172Z,5.22
2022-08-14T21:04:30.437Z,5.00
2022-08-14T21:07:25.397Z,4.93
2022-08-14T21:10:33.758Z,5.45
2022-08-14T21:13:26.350Z,4.82
2022-08-14T21:15:56.856Z,5.00
2022-08-14T21:18:29.577Z,5.60
2022-08-14T21:20:59.861Z,5.07
2022-08-14T21:23:32.600Z,4.88
2022-08-14T21:26:01.800Z,5.18
2022-08-14T21:28:35.520Z,5.00
2022-08-14T21:31:06.743Z,5.22
2022-08-14T21:33:39.965Z,5.10
2022-08-14T21:36:21.803Z,5.90
2022-08-14T21:38:50.897Z,5.30
2022-08-14T21:41:43.048Z,5.78
2022-08-14T21:44:17.767Z,5.47
2022-08-14T21:46:55.319Z,5.50
2022-08-14T21:49:33.809Z,4.95
2022-08-14T21:52:50.282Z,5.53
2022-08-14T21:55:00.689Z,5.70
2022-08-14T21:58:46.214Z,5.55
2022-08-14T22:00:30.238Z,5.28
2022-08-14T22:03:04.252Z,6.35
2022-08-14T22:05:34.825Z,5.75
2022-08-14T22:08:07.599Z,6.10
2022-08-14T22:10:42.910Z,6.28
2022-08-14T22:13:16.714Z,6.05
2022-08-14T22:15:49.470Z,6.75
2022-08-14T22:18:19.869Z,6.55
2022-08-14T22:20:53.920Z,5.82
2022-08-14T22:23:25.816Z,6.57
2022-08-14T22:25:54.814Z,5.63
2022-08-14T22:28:32.825Z,5.82
2022-08-14T22:31:03.066Z,5.63
2022-08-14T22:33:32.423Z,6.50
2022-08-14T22:36:26.191Z,5.45
2022-08-14T22:38:55.287Z,5.18
2022-08-14T22:41:27.682Z,5.93
2022-08-14T22:44:04.451Z,6.15
2022-08-14T22:46:36.448Z,5.50
2022-08-14T22:49:16.473Z,5.50
2022-08-14T22:52:03.931Z,5.90
2022-08-14T22:54:53.798Z,5.72
2022-08-14T22:57:22.633Z,5.53
2022-08-14T22:59:51.594Z,5.63
2022-08-14T23:02:30.259Z,5.82
2022-08-14T23:04:59.954Z,6.57
2022-08-14T23:08:59.889Z,5.50
2022-08-14T23:10:34.015Z,5.85
2022-08-14T23:13:04.529Z,6.15
2022-08-14T23:15:34.069Z,6.03
2022-08-14T23:18:03.474Z,6.07
2022-08-14T23:20:33.984Z,6.15
2022-08-14T23:23:23.012Z,5.78
2022-08-14T23:26:00.254Z,5.38
2022-08-14T23:28:56.190Z,6.10
2022-08-14T23:31:34.484Z,5.90
2022-08-14T23:34:07.039Z,6.07
2022-08-14T23:36:53.491Z,7.00
2022-08-14T23:39:30.378Z,6.75
2022-08-14T23:42:02.514Z,6.72
2022-08-14T23:44:35.710Z,7.10
2022-08-14T23:47:11.977Z,5.95
2022-08-14T23:50:00.843Z,6.70
2022-08-14T23:53:04.049Z,6.70
2022-08-14T23:55:28.464Z,6.78
2022-08-14T23:57:59.204Z,6.85
